Time;durP1;ratioP1;P1;durP2;ratioP2;P2;SDS_P1;SDS_P2;PMS_P1;PMS_P2;Temp;Humidity;BMP_temperature;BMP_pressure;BME280_temperature;BME280_humidity;BME280_pressure;Samples;Min_cycle;Max_cycle;Signal;HPM_P1;HPM_P2
2023/03/15 00:00:46;;;;;;;4.78;1.75;;;4.80;99.90;;;;;;5095772;28;20039;-66
2023/03/15 00:03:13;;;;;;;5.32;1.50;;;4.90;99.90;;;;;;5094758;28;20019;-65
2023/03/15 00:05:42;;;;;;;2.97;1.35;;;4.80;99.90;;;;;;5093772;28;20073;-65
2023/03/15 00:08:08;;;;;;;6.63;1.75;;;4.80;99.90;;;;;;5075399;28;20423;-65
2023/03/15 00:10:33;;;;;;;4.83;1.90;;;4.70;99.90;;;;;;5093377;28;20024;-67
2023/03/15 00:12:59;;;;;;;6.40;1.73;;;4.70;99.90;;;;;;5093554;28;20028;-66
2023/03/15 00:15:25;;;;;;;5.18;1.55;;;4.90;99.90;;;;;;5093373;28;20020;-65
2023/03/15 00:17:50;;;;;;;6.03;1.70;;;4.90;99.90;;;;;;5091801;28;20034;-65
2023/03/15 00:20:18;;;;;;;5.23;1.40;;;4.80;99.90;;;;;;5075455;28;20023;-66
2023/03/15 00:22:44;;;;;;;5.63;2.13;;;4.80;99.90;;;;;;5093731;28;20046;-65
2023/03/15 00:25:10;;;;;;;3.78;1.50;;;4.80;99.90;;;;;;5075469;28;20110;-65
2023/03/15 00:27:36;;;;;;;5.75;1.70;;;4.70;99.90;;;;;;5093758;28;20028;-65
2023/03/15 00:30:02;;;;;;;4.77;1.47;;;4.60;99.90;;;;;;5095782;28;20032;-65
2023/03/15 00:32:27;;;;;;;5.18;1.90;;;4.70;99.90;;;;;;5082759;28;20020;-67
2023/03/15 00:34:53;;;;;;;2.17;1.30;;;4.70;99.90;;;;;;5097796;28;20115;-66
2023/03/15 00:37:19;;;;;;;3.55;1.90;;;4.70;99.90;;;;;;5096123;28;20426;-66
2023/03/15 00:39:46;;;;;;;6.40;1.83;;;4.60;99.90;;;;;;5093345;28;20366;-65
2023/03/15 00:42:16;;;;;;;4.53;1.65;;;4.50;99.90;;;;;;5097988;28;20028;-66
2023/03/15 00:44:44;;;;;;;3.65;1.70;;;4.50;99.90;;;;;;5093854;28;20028;-67
2023/03/15 00:47:12;;;;;;;2.65;1.50;;;4.50;99.90;;;;;;5093737;28;20089;-64
2023/03/15 00:49:39;;;;;;;6.57;2.00;;;4.50;99.90;;;;;;5093333;28;20416;-65
2023/03/15 00:52:05;;;;;;;3.78;2.00;;;4.60;99.90;;;;;;5092574;28;20032;-64
2023/03/15 00:54:32;;;;;;;3.80;1.85;;;4.50;99.90;;;;;;5093638;28;20078;-65
2023/03/15 00:56:58;;;;;;;5.25;1.70;;;4.40;99.90;;;;;;5093583;28;20074;-64
2023/03/15 00:59:24;;;;;;;5.03;2.00;;;4.40;99.90;;;;;;5092931;28;20016;-65
2023/03/15 01:01:50;;;;;;;3.87;1.77;;;4.40;99.90;;;;;;5073901;28;20028;-64
2023/03/15 01:04:15;;;;;;;6.03;1.77;;;4.40;99.90;;;;;;5094026;28;20103;-64
2023/03/15 01:06:41;;;;;;;6.20;1.97;;;4.40;99.90;;;;;;5094756;28;20028;-65
2023/03/15 01:09:07;;;;;;;4.17;1.40;;;4.30;99.90;;;;;;5093595;28;20053;-65
2023/03/15 01:11:34;;;;;;;3.00;1.63;;;4.30;99.90;;;;;;5095129;28;20032;-64
2023/03/15 01:13:59;;;;;;;7.47;3.38;;;4.30;99.90;;;;;;5093413;28;20024;-65
2023/03/15 01:16:26;;;;;;;2.30;1.50;;;4.30;99.90;;;;;;5093270;28;20487;-66
2023/03/15 01:18:52;;;;;;;2.53;1.45;;;4.30;99.90;;;;;;5092526;28;20085;-65
2023/03/15 01:21:19;;;;;;;5.47;2.15;;;4.20;99.90;;;;;;5092810;28;20036;-65
2023/03/15 01:23:45;;;;;;;4.38;1.58;;;4.10;99.90;;;;;;5092770;28;20024;-65
2023/03/15 01:26:16;;;;;;;4.10;1.93;;;4.10;99.90;;;;;;5074624;28;20027;-65
2023/03/15 01:28:41;;;;;;;2.97;1.40;;;4.00;99.90;;;;;;5092707;28;20086;-65
2023/03/15 01:31:21;;;;;;;3.20;1.80;;;4.00;99.90;;;;;;5092743;28;20020;-66
2023/03/15 01:33:46;;;;;;;2.28;1.33;;;4.10;99.90;;;;;;5092810;28;20111;-65
2023/03/15 01:36:12;;;;;;;4.53;1.47;;;4.20;99.90;;;;;;5092743;28;20084;-65
2023/03/15 01:38:38;;;;;;;3.85;1.85;;;4.00;99.90;;;;;;5092802;28;20411;-65
2023/03/15 01:41:04;;;;;;;4.57;1.90;;;4.10;99.90;;;;;;5092800;28;20033;-65
2023/03/15 01:43:31;;;;;;;3.00;1.73;;;4.10;99.90;;;;;;5093216;28;20020;-65
2023/03/15 01:46:06;;;;;;;5.75;1.50;;;4.10;99.90;;;;;;5093036;28;20035;-64
2023/03/15 01:49:11;;;;;;;4.97;1.50;;;4.10;99.90;;;;;;5075029;28;20039;-65
2023/03/15 01:51:52;;;;;;;3.75;1.30;;;4.00;99.90;;;;;;5030761;28;20105;-66
2023/03/15 01:54:52;;;;;;;4.45;1.70;;;4.10;99.90;;;;;;5032227;28;20045;-65
2023/03/15 01:57:27;;;;;;;2.47;1.00;;;4.00;99.90;;;;;;4956480;29;20043;-66
2023/03/15 02:00:11;;;;;;;4.80;1.23;;;3.90;99.90;;;;;;4939690;29;20035;-65
2023/03/15 02:02:45;;;;;;;4.55;1.30;;;3.90;99.90;;;;;;4955713;29;20460;-65
2023/03/15 02:05:16;;;;;;;3.65;1.25;;;3.90;99.90;;;;;;4955226;29;20032;-66
2023/03/15 02:07:48;;;;;;;4.40;1.30;;;3.80;99.90;;;;;;4956752;29;20038;-66
2023/03/15 02:10:22;;;;;;;2.78;1.60;;;3.80;99.90;;;;;;4955372;29;20086;-66
2023/03/15 02:12:51;;;;;;;2.63;1.33;;;3.70;99.90;;;;;;4939625;29;20043;-65
2023/03/15 02:15:17;;;;;;;2.92;1.40;;;3.80;99.90;;;;;;4955095;29;20058;-65
2023/03/15 02:17:46;;;;;;;4.03;1.92;;;3.60;99.90;;;;;;4955075;29;20031;-66
2023/03/15 02:20:26;;;;;;;2.58;1.30;;;3.60;99.90;;;;;;4954836;29;20477;-65
2023/03/15 02:22:58;;;;;;;3.08;1.27;;;3.60;99.90;;;;;;4955077;29;20031;-66
2023/03/15 02:25:52;;;;;;;4.00;1.55;;;3.60;99.90;;;;;;4972763;28;20035;-65
2023/03/15 02:28:19;;;;;;;3.67;1.67;;;3.50;99.90;;;;;;4993579;28;20041;-65
2023/03/15 02:30:46;;;;;;;4.28;1.40;;;3.50;99.90;;;;;;4993565;28;20546;-65
2023/03/15 02:33:40;;;;;;;3.53;1.45;;;3.60;99.90;;;;;;5059295;28;20058;-65
2023/03/15 02:36:08;;;;;;;6.07;1.70;;;3.70;99.90;;;;;;5093619;28;20032;-65
2023/03/15 02:38:33;;;;;;;5.50;2.15;;;3.60;99.90;;;;;;5095609;28;20038;-66
2023/03/15 02:40:59;;;;;;;4.40;1.40;;;3.50;99.90;;;;;;5095402;28;20459;-66
2023/03/15 02:43:29;;;;;;;3.60;1.35;;;3.50;99.90;;;;;;5095160;28;20047;-65
2023/03/15 02:45:54;;;;;;;4.20;1.50;;;3.50;99.90;;;;;;5095009;28;20111;-65
2023/03/15 02:48:20;;;;;;;4.57;2.08;;;3.50;99.90;;;;;;5093436;28;20055;-66
2023/03/15 02:50:46;;;;;;;3.07;1.50;;;3.50;99.90;;;;;;5095787;28;20024;-65
2023/03/15 02:53:11;;;;;;;3.40;1.40;;;3.40;99.90;;;;;;5095185;28;20258;-65
2023/03/15 02:55:37;;;;;;;7.93;3.17;;;3.40;99.90;;;;;;5095814;28;20024;-65
2023/03/15 02:58:03;;;;;;;3.63;1.50;;;3.50;99.90;;;;;;5077033;28;20021;-66
2023/03/15 03:00:29;;;;;;;3.63;1.40;;;3.40;99.90;;;;;;5095128;28;20154;-65
2023/03/15 03:02:55;;;;;;;3.38;1.35;;;3.30;99.90;;;;;;5094865;28;20031;-65
2023/03/15 03:05:21;;;;;;;2.80;1.63;;;3.30;99.90;;;;;;5093447;28;20031;-65
2023/03/15 03:07:49;;;;;;;4.97;1.70;;;3.40;99.90;;;;;;5094595;28;20058;-65
2023/03/15 03:10:17;;;;;;;3.45;1.90;;;3.40;99.90;;;;;;5094509;28;20016;-64
2023/03/15 03:12:43;;;;;;;6.55;1.95;;;3.30;99.90;;;;;;5094494;28;20477;-66
2023/03/15 03:15:09;;;;;;;5.10;2.20;;;3.40;99.90;;;;;;5094573;28;20052;-65
2023/03/15 03:17:36;;;;;;;;;;;3.40;99.90;;;;;;5076457;28;20035;-65
2023/03/15 03:20:08;;;;;;;4.50;2.22;;;3.30;99.90;;;;;;5094117;28;19908;-65
2023/03/15 03:22:36;;;;;;;5.55;1.90;;;3.30;99.90;;;;;;5076119;28;20024;-65
2023/03/15 03:25:02;;;;;;;4.80;1.73;;;3.30;99.90;;;;;;5094324;28;20059;-65
2023/03/15 03:27:28;;;;;;;4.55;1.85;;;3.20;99.90;;;;;;5094332;28;20020;-66
2023/03/15 03:29:53;;;;;;;5.35;1.90;;;3.30;99.90;;;;;;5094135;28;20462;-67
2023/03/15 03:32:19;;;;;;;4.80;2.03;;;3.30;99.90;;;;;;5094011;28;20413;-66
2023/03/15 03:34:47;;;;;;;4.63;1.90;;;3.30;99.90;;;;;;5093833;28;20016;-65
2023/03/15 03:37:15;;;;;;;7.13;1.90;;;3.30;99.90;;;;;;5093947;28;20020;-66
2023/03/15 03:39:41;;;;;;;5.82;2.00;;;3.20;99.90;;;;;;5093768;28;20035;-66
2023/03/15 03:42:07;;;;;;;4.77;1.73;;;3.30;99.90;;;;;;5094342;28;20407;-66
2023/03/15 03:44:32;;;;;;;4.67;2.07;;;3.30;99.90;;;;;;5093817;28;20020;-66
2023/03/15 03:46:58;;;;;;;4.00;1.80;;;3.30;99.90;;;;;;5094017;28;20028;-64
2023/03/15 03:49:23;;;;;;;4.90;2.30;;;3.10;99.90;;;;;;5093399;28;20062;-66
2023/03/15 03:51:49;;;;;;;6.37;2.20;;;3.10;99.90;;;;;;5093779;28;20028;-65
2023/03/15 03:54:14;;;;;;;5.10;2.27;;;3.10;99.90;;;;;;5093858;28;20397;-65
2023/03/15 03:56:40;;;;;;;6.87;2.90;;;3.00;99.90;;;;;;5093698;28;20052;-64
2023/03/15 03:59:05;;;;;;;6.37;2.30;;;3.00;99.90;;;;;;5093564;28;20377;-66
2023/03/15 04:01:31;;;;;;;8.73;2.47;;;3.00;99.90;;;;;;5093555;28;20032;-63
2023/03/15 04:03:56;;;;;;;6.10;2.40;;;3.00;99.90;;;;;;5093215;28;20020;-67
2023/03/15 04:06:22;;;;;;;6.40;2.10;;;3.00;99.90;;;;;;5093602;28;20409;-65
2023/03/15 04:08:47;;;;;;;7.03;3.00;;;3.00;99.90;;;;;;5075297;28;20113;-66
2023/03/15 04:11:16;;;;;;;6.57;2.40;;;2.90;99.90;;;;;;5075247;28;20028;-65
2023/03/15 04:13:43;;;;;;;6.85;2.28;;;2.90;99.90;;;;;;5094781;28;20028;-66
2023/03/15 04:16:08;;;;;;;6.47;2.47;;;3.00;99.90;;;;;;5094976;28;20377;-66
2023/03/15 04:18:34;;;;;;;6.43;2.40;;;2.90;99.90;;;;;;5094940;28;20024;-67
2023/03/15 04:20:59;;;;;;;5.93;2.43;;;3.00;99.90;;;;;;5094041;28;20031;-66
2023/03/15 04:23:25;;;;;;;6.90;2.50;;;2.90;99.90;;;;;;5093792;28;20047;-66
2023/03/15 04:25:53;;;;;;;6.50;2.30;;;2.90;99.90;;;;;;5093469;28;20102;-66
2023/03/15 04:28:19;;;;;;;8.32;3.10;;;2.90;99.90;;;;;;5093322;28;20392;-66
2023/03/15 04:30:47;;;;;;;9.50;2.77;;;2.80;99.90;;;;;;5093249;28;20028;-66
2023/03/15 04:33:13;;;;;;;6.45;2.30;;;2.80;99.90;;;;;;5092925;28;20020;-67
2023/03/15 04:35:38;;;;;;;7.13;2.65;;;2.80;99.90;;;;;;5093634;28;20081;-66
2023/03/15 04:38:05;;;;;;;6.55;2.45;;;2.80;99.90;;;;;;5092980;28;20028;-65
2023/03/15 04:40:33;;;;;;;4.90;2.38;;;2.80;99.90;;;;;;5093158;28;20020;-67
2023/03/15 04:43:00;;;;;;;5.53;2.38;;;2.70;99.90;;;;;;5093554;28;20020;-66
2023/03/15 04:45:27;;;;;;;6.95;2.88;;;2.70;99.90;;;;;;5093222;28;20020;-66
2023/03/15 04:47:53;;;;;;;6.05;3.13;;;2.70;99.90;;;;;;5093565;28;20026;-66
2023/03/15 04:50:20;;;;;;;5.35;2.35;;;2.70;99.90;;;;;;5093105;28;20020;-65
2023/03/15 04:52:46;;;;;;;5.75;2.80;;;2.80;99.90;;;;;;5095201;28;20162;-65
2023/03/15 04:55:12;;;;;;;4.72;2.20;;;2.80;99.90;;;;;;5094669;28;20056;-66
2023/03/15 04:57:37;;;;;;;4.93;2.75;;;2.70;99.90;;;;;;5093671;28;20028;-66
2023/03/15 05:00:06;;;;;;;5.50;2.83;;;2.70;99.90;;;;;;5092947;28;20020;-66
2023/03/15 05:02:32;;;;;;;5.97;2.47;;;2.70;99.90;;;;;;5093209;28;20020;-66
2023/03/15 05:04:57;;;;;;;6.60;3.37;;;2.70;99.90;;;;;;5074478;28;20020;-65
2023/03/15 05:07:23;;;;;;;6.80;2.83;;;2.60;99.90;;;;;;5093101;28;20407;-67
2023/03/15 05:09:48;;;;;;;4.63;2.43;;;2.60;99.90;;;;;;5092898;28;20429;-66
2023/03/15 05:12:14;;;;;;;6.27;2.87;;;2.50;99.90;;;;;;5092772;28;20475;-66
2023/03/15 05:14:39;;;;;;;5.70;2.50;;;2.40;99.90;;;;;;5092840;28;20036;-65
2023/03/15 05:17:05;;;;;;;6.07;2.80;;;2.60;99.90;;;;;;5092808;28;20024;-66
2023/03/15 05:19:33;;;;;;;6.97;2.63;;;2.50;99.90;;;;;;5092254;28;20029;-65
2023/03/15 05:21:59;;;;;;;8.75;3.10;;;2.30;99.90;;;;;;5092548;28;20027;-66
2023/03/15 05:24:25;;;;;;;6.07;2.67;;;2.40;99.90;;;;;;5092821;28;20013;-65
2023/03/15 05:26:53;;;;;;;5.55;2.53;;;2.50;99.90;;;;;;5092673;28;20031;-65
2023/03/15 05:29:22;;;;;;;7.50;2.45;;;2.30;99.90;;;;;;5083410;28;20349;-66
2023/03/15 05:31:48;;;;;;;5.22;2.63;;;2.20;99.90;;;;;;5076152;28;20024;-65
2023/03/15 05:34:14;;;;;;;11.20;3.17;;;2.20;99.90;;;;;;5076115;28;20441;-66
2023/03/15 05:36:40;;;;;;;7.32;3.13;;;2.20;99.90;;;;;;5076287;28;20060;-66
2023/03/15 05:39:06;;;;;;;8.73;3.05;;;2.30;99.90;;;;;;5076174;28;20012;-66
2023/03/15 05:41:32;;;;;;;8.07;2.60;;;2.40;99.90;;;;;;5074738;28;20472;-65
2023/03/15 05:43:58;;;;;;;9.38;2.63;;;2.40;99.90;;;;;;5076624;28;20377;-66
2023/03/15 05:46:23;;;;;;;13.17;5.00;;;2.40;99.90;;;;;;5056783;28;20032;-65
2023/03/15 05:48:49;;;;;;;6.83;2.57;;;2.30;99.90;;;;;;5080374;28;20028;-66
2023/03/15 05:51:15;;;;;;;5.50;2.90;;;2.40;99.90;;;;;;5096214;28;20024;-66
2023/03/15 05:53:41;;;;;;;8.60;3.30;;;2.40;99.90;;;;;;5096662;28;20513;-66
2023/03/15 05:56:07;;;;;;;5.50;2.90;;;2.50;99.90;;;;;;5091036;28;20028;-66
2023/03/15 05:58:33;;;;;;;10.18;4.20;;;2.50;99.90;;;;;;5068952;28;20013;-72
2023/03/15 06:01:00;;;;;;;10.03;3.80;;;2.50;99.90;;;;;;5063423;28;20028;-67
2023/03/15 06:03:26;;;;;;;6.45;3.22;;;2.40;99.90;;;;;;5069638;28;20040;-66
2023/03/15 06:05:52;;;;;;;8.57;3.55;;;2.40;99.90;;;;;;5070729;28;20054;-66
2023/03/15 06:08:17;;;;;;;9.00;3.23;;;2.30;99.90;;;;;;5056418;28;20560;-68
2023/03/15 06:10:43;;;;;;;8.90;3.30;;;2.30;99.90;;;;;;5057634;28;20086;-68
2023/03/15 06:13:08;;;;;;;9.30;3.40;;;2.30;99.90;;;;;;5075750;28;20466;-67
2023/03/15 06:15:34;;;;;;;11.07;3.17;;;2.30;99.90;;;;;;5058289;28;20030;-68
2023/03/15 06:17:59;;;;;;;7.13;3.10;;;2.30;99.90;;;;;;5076442;28;20464;-68
2023/03/15 06:20:25;;;;;;;6.50;3.10;;;2.50;99.90;;;;;;5095545;28;20020;-68
2023/03/15 06:22:51;;;;;;;6.23;3.33;;;2.50;99.90;;;;;;5077473;28;20389;-68
2023/03/15 06:25:17;;;;;;;8.25;3.17;;;2.50;99.90;;;;;;5095703;28;20065;-68
2023/03/15 06:27:42;;;;;;;5.13;3.20;;;2.50;99.90;;;;;;5096127;28;20386;-67
2023/03/15 06:30:09;;;;;;;7.77;3.30;;;2.70;99.90;;;;;;5077758;28;20290;-67
2023/03/15 06:32:34;;;;;;;;;;;2.70;99.90;;;;;;5096700;28;20024;-69
2023/03/15 06:35:00;;;;;;;6.32;3.30;;;2.60;99.90;;;;;;5095701;28;20288;-67
2023/03/15 06:37:25;;;;;;;7.77;3.60;;;2.80;99.90;;;;;;5095666;28;20048;-69
2023/03/15 06:39:52;;;;;;;11.10;4.70;;;2.80;99.90;;;;;;5095953;28;20101;-68
2023/03/15 06:42:18;;;;;;;;;;;2.90;99.90;;;;;;5097754;28;20046;-68
2023/03/15 06:44:46;;;;;;;9.05;3.40;;;2.90;99.90;;;;;;5097723;28;19904;-68
2023/03/15 06:47:12;;;;;;;7.50;3.20;;;2.90;99.90;;;;;;5096293;28;20032;-68
2023/03/15 06:49:37;;;;;;;6.55;3.40;;;2.90;99.90;;;;;;5096652;28;20099;-67
2023/03/15 06:52:04;;;;;;;8.87;3.70;;;2.80;99.90;;;;;;5096433;28;20567;-68
2023/03/15 06:54:30;;;;;;;7.65;3.47;;;3.00;99.90;;;;;;5097256;28;20103;-68
2023/03/15 06:56:56;;;;;;;8.63;2.95;;;3.00;99.90;;;;;;5098150;28;20065;-67
2023/03/15 06:59:22;;;;;;;7.60;3.20;;;3.10;99.90;;;;;;5097119;28;20032;-69
2023/03/15 07:01:47;;;;;;;8.20;3.55;;;3.10;99.90;;;;;;5095131;28;20369;-68
2023/03/15 07:04:13;;;;;;;7.20;3.20;;;3.10;99.90;;;;;;5094914;28;20036;-67
2023/03/15 07:06:39;;;;;;;7.70;2.93;;;3.20;99.90;;;;;;5095076;28;20028;-67
2023/03/15 07:09:04;;;;;;;6.70;2.93;;;3.30;99.90;;;;;;5094712;28;20078;-67
2023/03/15 07:11:31;;;;;;;9.43;3.10;;;3.40;99.90;;;;;;5095035;28;20473;-70
2023/03/15 07:13:57;;;;;;;5.00;3.08;;;3.60;99.90;;;;;;5074352;28;20033;-68
2023/03/15 07:16:23;;;;;;;8.55;2.92;;;3.60;99.90;;;;;;5056263;28;20133;-67
2023/03/15 07:18:49;;;;;;;7.88;2.50;;;3.70;99.90;;;;;;5081950;28;20501;-68
2023/03/15 07:21:15;;;;;;;6.80;2.60;;;3.90;99.90;;;;;;5094241;28;20086;-68
2023/03/15 07:23:41;;;;;;;12.73;3.70;;;4.00;99.90;;;;;;5083006;28;20033;-69
2023/03/15 07:26:06;;;;;;;7.07;2.80;;;4.10;99.90;;;;;;5051989;28;20504;-68
2023/03/15 07:28:32;;;;;;;9.00;2.97;;;4.20;99.90;;;;;;5054047;28;20040;-68
2023/03/15 07:31:00;;;;;;;7.53;2.50;;;4.20;99.90;;;;;;5069271;28;20036;-68
2023/03/15 07:33:28;;;;;;;10.73;2.90;;;4.20;99.90;;;;;;5073685;28;20032;-68
2023/03/15 07:35:54;;;;;;;9.55;2.72;;;4.30;99.90;;;;;;5073843;28;20419;-67
2023/03/15 07:38:22;;;;;;;12.20;2.67;;;4.30;99.90;;;;;;5055515;28;20111;-67
2023/03/15 07:40:48;;;;;;;7.32;2.72;;;4.50;99.90;;;;;;5073748;28;20043;-67
2023/03/15 07:43:13;;;;;;;6.30;2.33;;;4.70;99.90;;;;;;5073979;28;20028;-67
2023/03/15 07:45:39;;;;;;;8.27;2.63;;;4.90;99.90;;;;;;5073748;28;20017;-67
2023/03/15 07:48:05;;;;;;;10.63;3.05;;;5.10;99.90;;;;;;5074054;28;20016;-67
2023/03/15 07:50:31;;;;;;;11.00;3.00;;;5.20;99.90;;;;;;5073455;28;20541;-67
2023/03/15 07:52:57;;;;;;;;;;;5.10;99.90;;;;;;5073527;28;20270;-67
2023/03/15 07:55:24;;;;;;;8.57;3.20;;;5.20;99.90;;;;;;5073748;28;19912;-67
2023/03/15 07:57:50;;;;;;;7.05;3.45;;;5.40;99.90;;;;;;5073730;28;20029;-67
2023/03/15 08:00:16;;;;;;;8.85;2.53;;;5.40;99.90;;;;;;5073416;28;20035;-67
2023/03/15 08:02:42;;;;;;;9.30;2.40;;;5.40;99.90;;;;;;5073465;28;20474;-73
2023/03/15 08:05:09;;;;;;;5.47;2.63;;;5.30;99.90;;;;;;5055297;28;20024;-72
2023/03/15 08:07:35;;;;;;;5.47;2.75;;;5.30;99.90;;;;;;5073658;28;20027;-73
2023/03/15 08:10:01;;;;;;;4.70;2.55;;;5.40;99.90;;;;;;5055104;28;20028;-73
2023/03/15 08:12:28;;;;;;;5.30;2.40;;;5.40;99.90;;;;;;5073536;28;20425;-71
2023/03/15 08:14:54;;;;;;;7.65;2.83;;;5.30;99.90;;;;;;5055511;28;20028;-72
2023/03/15 08:17:20;;;;;;;6.67;2.40;;;5.30;99.90;;;;;;5054898;28;20024;-72
2023/03/15 08:19:45;;;;;;;9.33;2.80;;;5.50;99.90;;;;;;5039276;28;20021;-72
2023/03/15 08:22:11;;;;;;;4.37;2.27;;;5.70;99.90;;;;;;5053606;28;20028;-70
2023/03/15 08:24:36;;;;;;;8.13;2.27;;;5.90;99.90;;;;;;5037779;28;20021;-71
2023/03/15 08:27:03;;;;;;;6.73;2.70;;;6.10;99.90;;;;;;5053441;28;20025;-72
2023/03/15 08:29:30;;;;;;;7.50;2.15;;;6.10;99.90;;;;;;5053133;28;20111;-72
2023/03/15 08:31:56;;;;;;;7.57;2.30;;;6.10;99.90;;;;;;5053060;28;20036;-73
2023/03/15 08:34:22;;;;;;;6.63;2.63;;;6.00;99.90;;;;;;5052748;28;20047;-73
2023/03/15 08:36:48;;;;;;;5.30;2.25;;;6.00;99.90;;;;;;5053463;28;20469;-73
2023/03/15 08:39:14;;;;;;;12.18;3.95;;;6.30;99.90;;;;;;5036049;28;20128;-73
2023/03/15 08:41:42;;;;;;;9.52;2.20;;;6.50;99.90;;;;;;5053515;28;20075;-73
2023/03/15 08:44:08;;;;;;;5.55;1.92;;;6.70;99.90;;;;;;5035515;28;20073;-73
2023/03/15 08:46:34;;;;;;;5.72;1.75;;;7.00;99.90;;;;;;5053571;28;20040;-73
2023/03/15 08:49:00;;;;;;;6.65;1.98;;;7.30;99.90;;;;;;5053476;28;20028;-72
2023/03/15 08:51:28;;;;;;;6.78;1.77;;;7.30;99.90;;;;;;5076926;28;20050;-72
2023/03/15 08:53:53;;;;;;;7.53;1.70;;;7.20;99.90;;;;;;5094632;28;20028;-73
2023/03/15 08:56:19;;;;;;;6.47;1.70;;;7.30;99.90;;;;;;5093514;28;20074;-72
2023/03/15 08:58:45;;;;;;;4.82;1.58;;;7.30;99.90;;;;;;5074680;28;20083;-72
2023/03/15 09:01:12;;;;;;;8.43;1.77;;;7.60;99.90;;;;;;5093204;28;20024;-71
2023/03/15 09:03:38;;;;;;;3.00;1.40;;;8.00;99.90;;;;;;5093466;28;20024;-70
2023/03/15 09:06:07;;;;;;;4.55;1.40;;;7.90;99.90;;;;;;5097146;28;20043;-70
2023/03/15 09:08:33;;;;;;;12.38;2.08;;;8.10;99.90;;;;;;5097236;28;20028;-70
2023/03/15 09:11:00;;;;;;;3.83;1.37;;;8.40;99.90;;;;;;5078629;28;20024;-70
2023/03/15 09:13:26;;;;;;;6.95;1.42;;;8.60;99.90;;;;;;5097098;28;20339;-70
2023/03/15 09:15:53;;;;;;;5.00;1.70;;;8.90;99.90;;;;;;5096981;28;20028;-71
2023/03/15 09:18:20;;;;;;;4.88;1.80;;;9.30;99.70;;;;;;5088143;28;20033;-72
2023/03/15 09:20:46;;;;;;;8.35;2.03;;;11.00;97.80;;;;;;5058740;28;20048;-72
2023/03/15 09:23:12;;;;;;;10.00;1.55;;;13.10;93.20;;;;;;5076575;28;20481;-67
2023/03/15 09:25:38;;;;;;;4.60;1.40;;;14.70;89.70;;;;;;5076502;28;20024;-72
2023/03/15 09:28:06;;;;;;;3.90;1.40;;;16.20;83.70;;;;;;5058434;28;20027;-71
2023/03/15 09:30:32;;;;;;;4.03;1.15;;;14.30;82.80;;;;;;5057705;28;20045;-72
2023/03/15 09:32:58;;;;;;;2.88;1.42;;;13.40;84.50;;;;;;5076204;28;20450;-69
2023/03/15 09:35:24;;;;;;;4.63;1.45;;;14.00;83.40;;;;;;5058036;28;20060;-69
2023/03/15 09:37:49;;;;;;;3.77;1.00;;;13.80;83.20;;;;;;5076306;28;20028;-69
2023/03/15 09:40:20;;;;;;;5.68;1.40;;;13.50;83.60;;;;;;5076300;28;20052;-72
2023/03/15 09:43:02;;;;;;;3.95;1.55;;;14.00;84.10;;;;;;5058354;28;20029;-71
2023/03/15 09:45:31;;;;;;;3.30;1.27;;;14.70;82.40;;;;;;5058035;28;20020;-71
2023/03/15 09:48:22;;;;;;;3.45;1.27;;;14.30;81.90;;;;;;5076020;28;20538;-71
2023/03/15 09:50:55;;;;;;;3.85;1.55;;;14.20;83.20;;;;;;5058480;28;20027;-72
2023/03/15 09:53:26;;;;;;;2.25;1.20;;;13.80;83.10;;;;;;5077745;28;20448;-73
2023/03/15 09:55:52;;;;;;;6.80;1.60;;;13.30;83.70;;;;;;5058292;28;20028;-71
2023/03/15 09:58:22;;;;;;;6.93;1.40;;;13.40;83.20;;;;;;5075793;28;20020;-68
2023/03/15 10:00:55;;;;;;;5.00;1.23;;;12.30;84.50;;;;;;5081597;28;20028;-68
2023/03/15 10:03:27;;;;;;;6.78;1.88;;;12.40;85.00;;;;;;5077556;28;20481;-69
2023/03/15 10:06:00;;;;;;;5.50;1.40;;;12.30;85.50;;;;;;5078045;28;20039;-72
2023/03/15 10:08:25;;;;;;;4.45;1.50;;;13.70;83.30;;;;;;5095994;28;20054;-71
2023/03/15 10:11:13;;;;;;;5.72;1.77;;;15.60;79.50;;;;;;5096263;28;20480;-72
2023/03/15 10:13:41;;;;;;;;;;;17.30;74.60;;;;;;5079148;28;20059;-72
2023/03/15 10:16:12;;;;;;;4.88;1.55;;;18.30;70.90;;;;;;5078468;28;19908;-72
2023/03/15 10:18:56;;;;;;;4.35;1.40;;;18.60;69.70;;;;;;5097194;28;20024;-67
2023/03/15 10:21:33;;;;;;;6.55;1.50;;;18.60;68.00;;;;;;5095879;28;20024;-66
2023/03/15 10:24:02;;;;;;;7.70;1.55;;;17.80;68.80;;;;;;5096205;28;20012;-67
2023/03/15 10:26:33;;;;;;;4.68;1.48;;;16.80;69.90;;;;;;5077469;28;20028;-70
2023/03/15 10:29:05;;;;;;;5.50;1.33;;;16.40;68.40;;;;;;5077617;28;20077;-70
2023/03/15 10:31:36;;;;;;;6.70;2.15;;;16.20;70.00;;;;;;5085335;28;20116;-70
2023/03/15 10:34:02;;;;;;;5.35;1.67;;;15.60;69.00;;;;;;5075922;28;20033;-70
2023/03/15 10:36:27;;;;;;;4.30;1.38;;;14.40;70.00;;;;;;5080076;28;20563;-71
2023/03/15 10:38:53;;;;;;;5.10;1.10;;;12.80;73.20;;;;;;5079899;28;20040;-70
2023/03/15 10:41:27;;;;;;;4.13;1.50;;;11.30;75.50;;;;;;5060591;28;20035;-69
2023/03/15 10:44:03;;;;;;;3.30;1.00;;;10.50;79.00;;;;;;5057125;28;20066;-71
2023/03/15 10:46:29;;;;;;;2.42;1.25;;;9.90;79.00;;;;;;5056755;28;20028;-69
2023/03/15 10:48:59;;;;;;;4.73;1.03;;;9.50;81.60;;;;;;5074616;28;20484;-70
2023/03/15 10:51:31;;;;;;;3.55;1.27;;;9.00;82.00;;;;;;5056777;28;20028;-70
2023/03/15 10:54:17;;;;;;;2.78;1.40;;;8.80;83.80;;;;;;5056745;28;20024;-70
2023/03/15 10:56:47;;;;;;;5.43;1.40;;;8.60;85.60;;;;;;5056709;28;20365;-70
2023/03/15 10:59:18;;;;;;;4.18;1.17;;;8.40;86.60;;;;;;5056446;28;20036;-70
2023/03/15 11:01:47;;;;;;;5.13;1.35;;;8.30;88.10;;;;;;5074711;28;20025;-69
2023/03/15 11:04:16;;;;;;;6.97;2.72;;;8.20;88.60;;;;;;5074827;28;20056;-69
2023/03/15 11:06:48;;;;;;;4.85;1.45;;;8.10;89.70;;;;;;5056751;28;20029;-69
2023/03/15 11:09:21;;;;;;;2.42;1.00;;;7.80;92.70;;;;;;5074295;28;20039;-70
2023/03/15 11:11:55;;;;;;;7.82;1.50;;;7.60;96.20;;;;;;5056525;28;20122;-70
2023/03/15 11:14:21;;;;;;;4.30;1.48;;;7.40;98.60;;;;;;5056457;28;20107;-72
2023/03/15 11:16:53;;;;;;;3.63;1.40;;;7.30;99.90;;;;;;5056432;28;20170;-69
2023/03/15 11:19:24;;;;;;;3.72;1.40;;;7.40;99.90;;;;;;5085068;28;20120;-70
2023/03/15 11:21:50;;;;;;;2.47;1.40;;;7.40;99.90;;;;;;5095247;28;20353;-70
2023/03/15 11:24:32;;;;;;;8.88;1.88;;;7.30;99.90;;;;;;5097010;28;20027;-70
2023/03/15 11:27:01;;;;;;;5.95;1.60;;;7.30;99.90;;;;;;5078721;28;20031;-70
2023/03/15 11:29:30;;;;;;;3.20;1.60;;;7.20;99.90;;;;;;5078892;28;20032;-71
2023/03/15 11:31:58;;;;;;;2.92;1.00;;;7.10;99.90;;;;;;5079114;28;20028;-70
2023/03/15 11:34:41;;;;;;;3.85;1.63;;;7.20;99.90;;;;;;5097468;28;20051;-70
2023/03/15 11:37:18;;;;;;;4.15;1.20;;;7.30;99.90;;;;;;5097707;28;20024;-70
2023/03/15 11:40:00;;;;;;;4.00;1.05;;;7.30;99.90;;;;;;5079428;28;20027;-70
2023/03/15 11:42:32;;;;;;;2.80;1.38;;;7.20;99.90;;;;;;5079234;28;20024;-70
2023/03/15 11:45:03;;;;;;;3.22;1.05;;;7.30;99.90;;;;;;5076020;28;20031;-70
2023/03/15 11:47:42;;;;;;;2.20;1.10;;;7.40;99.90;;;;;;5058858;28;20060;-70
2023/03/15 11:50:13;;;;;;;4.55;0.90;;;7.70;99.90;;;;;;5071419;28;20370;-71
2023/03/15 11:52:40;;;;;;;3.13;1.05;;;7.80;99.90;;;;;;5056076;28;20024;-70
2023/03/15 11:55:06;;;;;;;2.42;1.40;;;7.60;99.90;;;;;;5055905;28;20060;-69
2023/03/15 11:57:42;;;;;;;;;;;7.60;99.90;;;;;;5073448;28;20032;-69
2023/03/15 12:00:34;;;;;;;6.68;1.17;;;7.70;99.90;;;;;;5072101;28;19905;-71
2023/03/15 12:03:34;;;;;;;2.72;0.93;;;7.80;99.90;;;;;;5072743;28;20020;-71
2023/03/15 12:06:32;;;;;;;5.53;0.95;;;8.10;99.90;;;;;;5080632;28;20035;-71
2023/03/15 12:08:58;;;;;;;1.95;0.75;;;8.20;99.90;;;;;;5093758;28;20068;-70
2023/03/15 12:11:24;;;;;;;4.17;0.90;;;8.40;99.90;;;;;;5092260;28;20098;-70
2023/03/15 12:14:01;;;;;;;2.27;0.80;;;8.70;99.90;;;;;;5076731;28;20267;-69
2023/03/15 12:16:38;;;;;;;1.65;0.90;;;8.90;99.90;;;;;;5096269;28;20484;-71
2023/03/15 12:19:23;;;;;;;2.83;0.85;;;9.00;99.90;;;;;;5074037;28;20077;-69
2023/03/15 12:21:55;;;;;;;4.43;1.20;;;9.10;99.90;;;;;;5093596;28;20067;-70
2023/03/15 12:24:36;;;;;;;3.70;1.27;;;9.20;99.90;;;;;;5093659;28;20047;-70
2023/03/15 12:27:04;;;;;;;3.38;1.52;;;9.20;99.90;;;;;;5091911;28;20051;-70
2023/03/15 12:29:32;;;;;;;3.45;1.05;;;9.20;99.90;;;;;;5093621;28;20043;-70
2023/03/15 12:32:08;;;;;;;4.15;1.30;;;9.20;99.90;;;;;;5076825;28;20032;-70
2023/03/15 12:34:37;;;;;;;8.18;1.52;;;9.10;99.90;;;;;;5058391;28;20031;-70
2023/03/15 12:37:07;;;;;;;4.05;1.63;;;9.00;99.90;;;;;;5074091;28;20042;-70
2023/03/15 12:39:45;;;;;;;4.05;1.88;;;9.10;99.90;;;;;;5072818;28;20469;-70
2023/03/15 12:42:37;;;;;;;3.38;1.50;;;8.90;99.90;;;;;;5076740;28;20048;-70
2023/03/15 12:45:15;;;;;;;2.85;1.70;;;8.70;99.90;;;;;;5079230;28;20016;-71
2023/03/15 12:47:52;;;;;;;3.78;1.40;;;8.70;99.90;;;;;;5092327;28;20062;-69
2023/03/15 12:50:46;;;;;;;4.80;1.60;;;8.60;99.90;;;;;;5072986;28;20032;-70
2023/03/15 12:53:30;;;;;;;9.02;2.38;;;8.80;99.90;;;;;;5056051;28;20120;-70
2023/03/15 12:56:10;;;;;;;3.65;1.98;;;8.90;99.90;;;;;;5074278;28;20547;-70
2023/03/15 12:58:37;;;;;;;5.70;1.85;;;9.20;99.90;;;;;;5093355;28;20206;-70
2023/03/15 13:01:06;;;;;;;5.78;1.90;;;9.40;99.90;;;;;;5092504;28;20028;-71
2023/03/15 13:03:34;;;;;;;4.28;1.70;;;9.80;99.90;;;;;;5075451;28;20111;-70
2023/03/15 13:06:39;;;;;;;4.88;2.05;;;9.90;99.90;;;;;;5073188;28;20047;-70